DLH9XK EDDF-EDDM
Flight info
| Callsign | DLH9XK |
|---|---|
| Flight time | 0h 36m |
| Altitude | 23000 |
| Route | CINDY5L CINDY Z74 HAREM T104 ROKIL ROKIL1B |
| Aircraft | A319/M-SDE2E3FGIJ1LORWXYZ/HB1 |
Departure
| Time | 2026-04-16 07:56 |
|---|---|
| Airport | Frankfurt Main Airport (EDDF) |
Arrival
| Time | 2026-04-16 08:32 |
|---|---|
| Airport | Munich Airport (EDDM) |
| Time | Latitude | Longitude | Altitude | Speed | Heading |
|---|---|---|---|---|---|
| 2026-04-16 07:18 | 50.04399 | 8.56168 | 346 ft | 0 kts | 155° |
| 2026-04-16 07:47 | 50.04409 | 8.56161 | 346 ft | 4 kts | 158° |
| 2026-04-16 07:47 | 50.04435 | 8.56148 | 346 ft | 4 kts | 171° |
| 2026-04-16 07:48 | 50.04459 | 8.56149 | 346 ft | 4 kts | 217° |
| 2026-04-16 07:48 | 50.04466 | 8.56161 | 346 ft | 0 kts | 249° |
| 2026-04-16 07:50 | 50.04464 | 8.56154 | 346 ft | 3 kts | 249° |
| 2026-04-16 07:50 | 50.04446 | 8.56080 | 351 ft | 10 kts | 249° |
| 2026-04-16 07:50 | 50.04420 | 8.55972 | 349 ft | 12 kts | 247° |
| 2026-04-16 07:50 | 50.04352 | 8.55926 | 352 ft | 12 kts | 159° |
| 2026-04-16 07:51 | 50.04266 | 8.55958 | 352 ft | 13 kts | 198° |
| 2026-04-16 07:51 | 50.04216 | 8.55834 | 346 ft | 15 kts | 250° |
| 2026-04-16 07:51 | 50.04180 | 8.55684 | 358 ft | 16 kts | 250° |
| 2026-04-16 07:51 | 50.04139 | 8.55511 | 349 ft | 17 kts | 250° |
| 2026-04-16 07:52 | 50.04096 | 8.55330 | 352 ft | 18 kts | 250° |
| 2026-04-16 07:52 | 50.04051 | 8.55137 | 353 ft | 20 kts | 249° |
| 2026-04-16 07:52 | 50.04001 | 8.54934 | 353 ft | 21 kts | 249° |
| 2026-04-16 07:52 | 50.03950 | 8.54722 | 346 ft | 21 kts | 250° |
| 2026-04-16 07:53 | 50.03898 | 8.54499 | 346 ft | 22 kts | 250° |
| 2026-04-16 07:53 | 50.03827 | 8.54282 | 347 ft | 23 kts | 236° |
| 2026-04-16 07:53 | 50.03761 | 8.54055 | 350 ft | 23 kts | 249° |
| 2026-04-16 07:53 | 50.03702 | 8.53815 | 346 ft | 24 kts | 249° |
| 2026-04-16 07:54 | 50.03641 | 8.53569 | 352 ft | 25 kts | 249° |
| 2026-04-16 07:54 | 50.03579 | 8.53318 | 346 ft | 25 kts | 249° |
| 2026-04-16 07:54 | 50.03521 | 8.53067 | 349 ft | 24 kts | 250° |
| 2026-04-16 07:54 | 50.03466 | 8.52836 | 350 ft | 22 kts | 249° |
| 2026-04-16 07:55 | 50.03417 | 8.52651 | 349 ft | 13 kts | 245° |
| 2026-04-16 07:55 | 50.03340 | 8.52596 | 346 ft | 14 kts | 179° |
| 2026-04-16 07:55 | 50.03200 | 8.52598 | 346 ft | 44 kts | 179° |
| 2026-04-16 07:55 | 50.02597 | 8.52602 | 346 ft | 125 kts | 179° |
| 2026-04-16 07:56 | 50.01563 | 8.52610 | 655 ft | 156 kts | 181° |
| 2026-04-16 07:56 | 50.00485 | 8.52643 | 1498 ft | 156 kts | 180° |
| 2026-04-16 07:56 | 49.99351 | 8.52706 | 2121 ft | 176 kts | 181° |
| 2026-04-16 07:56 | 49.98054 | 8.52789 | 2694 ft | 196 kts | 180° |
| 2026-04-16 07:57 | 49.96627 | 8.52888 | 3167 ft | 216 kts | 179° |
| 2026-04-16 07:57 | 49.95072 | 8.52993 | 3762 ft | 232 kts | 179° |
| 2026-04-16 07:57 | 49.93453 | 8.53106 | 4761 ft | 234 kts | 179° |
| 2026-04-16 07:57 | 49.91817 | 8.53224 | 5820 ft | 236 kts | 179° |
| 2026-04-16 07:58 | 49.90158 | 8.53341 | 6853 ft | 241 kts | 180° |
| 2026-04-16 07:58 | 49.88474 | 8.53456 | 7817 ft | 245 kts | 180° |
| 2026-04-16 07:58 | 49.86750 | 8.53568 | 8743 ft | 251 kts | 180° |
| 2026-04-16 07:58 | 49.84983 | 8.53679 | 9676 ft | 258 kts | 179° |
| 2026-04-16 07:59 | 49.83165 | 8.53804 | 10593 ft | 264 kts | 179° |
| 2026-04-16 07:59 | 49.81321 | 8.54020 | 11511 ft | 269 kts | 170° |
| 2026-04-16 07:59 | 49.79602 | 8.55211 | 12403 ft | 277 kts | 143° |
| 2026-04-16 07:59 | 49.78348 | 8.57536 | 13090 ft | 294 kts | 116° |
| 2026-04-16 08:00 | 49.77891 | 8.60728 | 13468 ft | 318 kts | 91° |
| 2026-04-16 08:00 | 49.77792 | 8.64277 | 13823 ft | 342 kts | 91° |
| 2026-04-16 08:00 | 49.77688 | 8.68077 | 14210 ft | 362 kts | 92° |
| 2026-04-16 08:00 | 49.77570 | 8.72013 | 14867 ft | 370 kts | 92° |
| 2026-04-16 08:01 | 49.77441 | 8.76019 | 15595 ft | 375 kts | 92° |
| 2026-04-16 08:01 | 49.77302 | 8.80075 | 16354 ft | 380 kts | 92° |
| 2026-04-16 08:01 | 49.77154 | 8.84179 | 17112 ft | 384 kts | 92° |
| 2026-04-16 08:01 | 49.76998 | 8.88331 | 17844 ft | 389 kts | 92° |
| 2026-04-16 08:02 | 49.76839 | 8.92536 | 18573 ft | 394 kts | 92° |
| 2026-04-16 08:02 | 49.76521 | 9.01101 | 19824 ft | 404 kts | 92° |
| 2026-04-16 08:02 | 49.76361 | 9.05468 | 20460 ft | 409 kts | 92° |
| 2026-04-16 08:03 | 49.76077 | 9.09866 | 21103 ft | 413 kts | 100° |
| 2026-04-16 08:03 | 49.75363 | 9.14194 | 21723 ft | 418 kts | 109° |
| 2026-04-16 08:03 | 49.74225 | 9.18348 | 22332 ft | 422 kts | 118° |
| 2026-04-16 08:03 | 49.72665 | 9.22197 | 22944 ft | 425 kts | 128° |
| 2026-04-16 08:04 | 49.70773 | 9.25719 | 23190 ft | 426 kts | 133° |
| 2026-04-16 08:04 | 49.68833 | 9.29172 | 23243 ft | 425 kts | 133° |
| 2026-04-16 08:04 | 49.66889 | 9.32593 | 23236 ft | 424 kts | 134° |
| 2026-04-16 08:04 | 49.64935 | 9.36006 | 23241 ft | 424 kts | 134° |
| 2026-04-16 08:05 | 49.62982 | 9.39412 | 23237 ft | 424 kts | 134° |
| 2026-04-16 08:05 | 49.61035 | 9.42823 | 23235 ft | 424 kts | 133° |
| 2026-04-16 08:05 | 49.59092 | 9.46241 | 23238 ft | 424 kts | 133° |
| 2026-04-16 08:05 | 49.57152 | 9.49657 | 23227 ft | 423 kts | 133° |
| 2026-04-16 08:06 | 49.55213 | 9.53072 | 23245 ft | 423 kts | 133° |
| 2026-04-16 08:06 | 49.53272 | 9.56480 | 23242 ft | 423 kts | 133° |
| 2026-04-16 08:06 | 49.51329 | 9.59884 | 23243 ft | 423 kts | 133° |
| 2026-04-16 08:06 | 49.49385 | 9.63286 | 23242 ft | 423 kts | 133° |
| 2026-04-16 08:07 | 49.47441 | 9.66683 | 23240 ft | 423 kts | 133° |
| 2026-04-16 08:07 | 49.45499 | 9.70066 | 23240 ft | 423 kts | 133° |
| 2026-04-16 08:07 | 49.43552 | 9.73458 | 23241 ft | 425 kts | 133° |
| 2026-04-16 08:07 | 49.41548 | 9.76938 | 23249 ft | 445 kts | 133° |
| 2026-04-16 08:08 | 49.39451 | 9.80565 | 23249 ft | 461 kts | 133° |
| 2026-04-16 08:08 | 49.37292 | 9.84298 | 23247 ft | 476 kts | 133° |
| 2026-04-16 08:08 | 49.35067 | 9.88141 | 23247 ft | 488 kts | 133° |
| 2026-04-16 08:08 | 49.32789 | 9.92071 | 23247 ft | 496 kts | 133° |
| 2026-04-16 08:09 | 49.30492 | 9.96033 | 23242 ft | 498 kts | 133° |
| 2026-04-16 08:09 | 49.28183 | 10.00004 | 23248 ft | 499 kts | 133° |
| 2026-04-16 08:09 | 49.25873 | 10.03975 | 23248 ft | 499 kts | 133° |
| 2026-04-16 08:09 | 49.23565 | 10.07939 | 23246 ft | 499 kts | 133° |
| 2026-04-16 08:10 | 49.21250 | 10.11902 | 23247 ft | 499 kts | 133° |
| 2026-04-16 08:10 | 49.18936 | 10.15861 | 23258 ft | 499 kts | 133° |
| 2026-04-16 08:10 | 49.16620 | 10.19814 | 23259 ft | 499 kts | 133° |
| 2026-04-16 08:10 | 49.14305 | 10.23759 | 23257 ft | 499 kts | 133° |
| 2026-04-16 08:11 | 49.11965 | 10.27675 | 23260 ft | 498 kts | 134° |
| 2026-04-16 08:11 | 49.09594 | 10.31530 | 23274 ft | 498 kts | 135° |
| 2026-04-16 08:11 | 49.07207 | 10.35336 | 23269 ft | 497 kts | 135° |
| 2026-04-16 08:11 | 49.04834 | 10.39089 | 23243 ft | 497 kts | 135° |
| 2026-04-16 08:12 | 49.02408 | 10.42925 | 23244 ft | 497 kts | 135° |
| 2026-04-16 08:12 | 49.00017 | 10.46724 | 23259 ft | 497 kts | 135° |
| 2026-04-16 08:12 | 48.97628 | 10.50527 | 23260 ft | 496 kts | 135° |
| 2026-04-16 08:12 | 48.95241 | 10.54333 | 23259 ft | 496 kts | 135° |
| 2026-04-16 08:13 | 48.92859 | 10.58132 | 23272 ft | 496 kts | 135° |
| 2026-04-16 08:13 | 48.90482 | 10.61921 | 23269 ft | 496 kts | 135° |
| 2026-04-16 08:13 | 48.88100 | 10.65720 | 23266 ft | 496 kts | 135° |
| 2026-04-16 08:13 | 48.85718 | 10.69513 | 23265 ft | 496 kts | 135° |
| 2026-04-16 08:14 | 48.83329 | 10.73298 | 23259 ft | 496 kts | 135° |
| 2026-04-16 08:14 | 48.80937 | 10.77074 | 23254 ft | 496 kts | 135° |
| 2026-04-16 08:14 | 48.78546 | 10.80835 | 23234 ft | 496 kts | 135° |
| 2026-04-16 08:14 | 48.76147 | 10.84596 | 23236 ft | 496 kts | 135° |
| 2026-04-16 08:15 | 48.73747 | 10.88348 | 23230 ft | 496 kts | 135° |
| 2026-04-16 08:15 | 48.71344 | 10.92095 | 23231 ft | 496 kts | 135° |
| 2026-04-16 08:15 | 48.68941 | 10.95842 | 23233 ft | 496 kts | 135° |
| 2026-04-16 08:15 | 48.66541 | 10.99583 | 23232 ft | 496 kts | 135° |
| 2026-04-16 08:16 | 48.64137 | 11.03324 | 23229 ft | 496 kts | 135° |
| 2026-04-16 08:16 | 48.61729 | 11.07063 | 22891 ft | 497 kts | 135° |
| 2026-04-16 08:16 | 48.59329 | 11.10785 | 22322 ft | 487 kts | 136° |
| 2026-04-16 08:16 | 48.56869 | 11.14054 | 21864 ft | 475 kts | 145° |
| 2026-04-16 08:17 | 48.54170 | 11.16877 | 21133 ft | 470 kts | 148° |
| 2026-04-16 08:17 | 48.51487 | 11.19661 | 20594 ft | 466 kts | 144° |
| 2026-04-16 08:17 | 48.49057 | 11.22786 | 20037 ft | 455 kts | 140° |
| 2026-04-16 08:17 | 48.46713 | 11.25910 | 19431 ft | 445 kts | 140° |
| 2026-04-16 08:18 | 48.44537 | 11.29169 | 18844 ft | 439 kts | 129° |
| 2026-04-16 08:19 | 48.43356 | 11.57886 | 15395 ft | 371 kts | 82° |
| 2026-04-16 08:20 | 48.43653 | 11.61769 | 14520 ft | 375 kts | 82° |
| 2026-04-16 08:20 | 48.43952 | 11.65652 | 14059 ft | 369 kts | 82° |
| 2026-04-16 08:20 | 48.44245 | 11.69434 | 13394 ft | 357 kts | 82° |
| 2026-04-16 08:20 | 48.44527 | 11.73085 | 12938 ft | 346 kts | 82° |
| 2026-04-16 08:21 | 48.44802 | 11.76649 | 12344 ft | 340 kts | 82° |
| 2026-04-16 08:21 | 48.45075 | 11.80168 | 11731 ft | 336 kts | 82° |
| 2026-04-16 08:21 | 48.45342 | 11.83642 | 11061 ft | 335 kts | 82° |
| 2026-04-16 08:21 | 48.45609 | 11.87117 | 10581 ft | 331 kts | 83° |
| 2026-04-16 08:22 | 48.45865 | 11.90489 | 10266 ft | 313 kts | 82° |
| 2026-04-16 08:22 | 48.46104 | 11.93664 | 9908 ft | 300 kts | 82° |
| 2026-04-16 08:22 | 48.46335 | 11.96752 | 9317 ft | 294 kts | 82° |
| 2026-04-16 08:22 | 48.46560 | 11.99790 | 8694 ft | 289 kts | 82° |
| 2026-04-16 08:23 | 48.46782 | 12.02780 | 8086 ft | 285 kts | 82° |
| 2026-04-16 08:23 | 48.47002 | 12.05731 | 7480 ft | 281 kts | 83° |
| 2026-04-16 08:23 | 48.47218 | 12.08628 | 6902 ft | 276 kts | 83° |
| 2026-04-16 08:23 | 48.47429 | 12.11480 | 6297 ft | 273 kts | 83° |
| 2026-04-16 08:24 | 48.47638 | 12.14297 | 6026 ft | 265 kts | 82° |
| 2026-04-16 08:24 | 48.47813 | 12.16983 | 5990 ft | 250 kts | 87° |
| 2026-04-16 08:24 | 48.47521 | 12.19508 | 6000 ft | 244 kts | 112° |
| 2026-04-16 08:24 | 48.46564 | 12.21648 | 5998 ft | 245 kts | 137° |
| 2026-04-16 08:25 | 48.45153 | 12.22964 | 6001 ft | 244 kts | 161° |
| 2026-04-16 08:25 | 48.43494 | 12.23370 | 6001 ft | 242 kts | 184° |
| 2026-04-16 08:25 | 48.41882 | 12.22816 | 5999 ft | 236 kts | 208° |
| 2026-04-16 08:25 | 48.40553 | 12.21439 | 6003 ft | 232 kts | 228° |
| 2026-04-16 08:26 | 48.39673 | 12.19500 | 6009 ft | 217 kts | 249° |
| 2026-04-16 08:26 | 48.39312 | 12.17367 | 5999 ft | 207 kts | 265° |
| 2026-04-16 08:26 | 48.39158 | 12.15246 | 5820 ft | 201 kts | 265° |
| 2026-04-16 08:26 | 48.39007 | 12.13160 | 5569 ft | 200 kts | 265° |
| 2026-04-16 08:27 | 48.38854 | 12.11081 | 5309 ft | 200 kts | 265° |
| 2026-04-16 08:27 | 48.38701 | 12.09006 | 5042 ft | 199 kts | 265° |
| 2026-04-16 08:27 | 48.38548 | 12.06935 | 4763 ft | 199 kts | 265° |
| 2026-04-16 08:27 | 48.38396 | 12.04872 | 4493 ft | 199 kts | 265° |
| 2026-04-16 08:28 | 48.38244 | 12.02818 | 4243 ft | 195 kts | 264° |
| 2026-04-16 08:28 | 48.38095 | 12.00820 | 3963 ft | 189 kts | 265° |
| 2026-04-16 08:28 | 48.37952 | 11.98909 | 3712 ft | 178 kts | 265° |
| 2026-04-16 08:28 | 48.37818 | 11.97115 | 3485 ft | 167 kts | 265° |
| 2026-04-16 08:29 | 48.37692 | 11.95438 | 3258 ft | 155 kts | 264° |
| 2026-04-16 08:29 | 48.37577 | 11.93893 | 3061 ft | 142 kts | 264° |
| 2026-04-16 08:29 | 48.37506 | 11.92953 | 2941 ft | 132 kts | 263° |
| 2026-04-16 08:29 | 48.37407 | 11.91637 | 2765 ft | 123 kts | 264° |
| 2026-04-16 08:30 | 48.37311 | 11.90373 | 2594 ft | 120 kts | 263° |
| 2026-04-16 08:30 | 48.37217 | 11.89127 | 2434 ft | 119 kts | 264° |
| 2026-04-16 08:30 | 48.37124 | 11.87887 | 2267 ft | 120 kts | 264° |
| 2026-04-16 08:30 | 48.37030 | 11.86646 | 2097 ft | 120 kts | 262° |
| 2026-04-16 08:31 | 48.36936 | 11.85410 | 1929 ft | 118 kts | 264° |
| 2026-04-16 08:31 | 48.36842 | 11.84171 | 1766 ft | 121 kts | 264° |
| 2026-04-16 08:31 | 48.36747 | 11.82916 | 1613 ft | 120 kts | 264° |
| 2026-04-16 08:31 | 48.36653 | 11.81694 | 1479 ft | 107 kts | 263° |
| 2026-04-16 08:32 | 48.36588 | 11.80792 | 1477 ft | 61 kts | 263° |
| 2026-04-16 08:32 | 48.36546 | 11.80270 | 1486 ft | 46 kts | 263° |
| 2026-04-16 08:32 | 48.36496 | 11.79826 | 1486 ft | 39 kts | 248° |
| 2026-04-16 08:32 | 48.36352 | 11.79499 | 1478 ft | 27 kts | 234° |
| 2026-04-16 08:33 | 48.36236 | 11.79307 | 1475 ft | 24 kts | 200° |
| 2026-04-16 08:33 | 48.36078 | 11.79319 | 1467 ft | 21 kts | 174° |
| 2026-04-16 08:33 | 48.35939 | 11.79346 | 1486 ft | 17 kts | 158° |
| 2026-04-16 08:33 | 48.35845 | 11.79453 | 1486 ft | 18 kts | 168° |
| 2026-04-16 08:34 | 48.35733 | 11.79478 | 1475 ft | 11 kts | 158° |
| 2026-04-16 08:34 | 48.35721 | 11.79582 | 1476 ft | 11 kts | 76° |
| 2026-04-16 08:34 | 48.35730 | 11.79693 | 1479 ft | 7 kts | 82° |
| 2026-04-16 08:34 | 48.35731 | 11.79699 | 1486 ft | 0 kts | 82° |